Time;durP1;ratioP1;P1;durP2;ratioP2;P2;SDS_P1;SDS_P2;PMS_P1;PMS_P2;Temp;Humidity;BMP_temperature;BMP_pressure;BME280_temperature;BME280_humidity;BME280_pressure;Samples;Min_cycle;Max_cycle;Signal;HPM_P1;HPM_P2
2022/09/09 00:00:24;;;;;;;;;1.00;1.00;;;;;18.97;59.48;100534.16;5089826;27;45402;-71
2022/09/09 00:03:07;;;;;;;;;1.00;1.00;;;;;19.11;59.77;100544.28;5081517;27;45502;-70
2022/09/09 00:05:49;;;;;;;;;2.00;2.00;;;;;19.00;59.75;100526.09;5077956;27;45332;-71
2022/09/09 00:08:21;;;;;;;;;1.00;1.00;;;;;19.02;59.29;100533.06;5060461;27;45387;-70
2022/09/09 00:10:56;;;;;;;;;3.33;0.67;;;;;19.05;59.49;100543.59;5055679;27;45450;-72
2022/09/09 00:13:33;;;;;;;;;1.00;1.00;;;;;18.95;59.60;100534.22;5044362;27;45626;-71
2022/09/09 00:16:23;;;;;;;;;4.00;3.00;;;;;19.04;60.07;100533.03;5075893;27;45425;-71
2022/09/09 00:19:00;;;;;;;;;2.00;1.00;;;;;19.00;59.39;100548.19;5074544;27;46395;-70
2022/09/09 00:21:37;;;;;;;;;2.33;2.00;;;;;19.01;59.33;100536.66;5065767;27;45517;-71
2022/09/09 00:24:13;;;;;;;;;1.00;1.00;;;;;18.90;59.40;100536.16;5077121;27;46180;-73
2022/09/09 00:26:44;;;;;;;;;1.00;1.00;;;;;18.88;59.95;100534.50;5073304;27;45405;-71
2022/09/09 00:29:33;;;;;;;;;1.00;1.00;;;;;18.95;60.02;100533.34;5058904;28;46661;-70
2022/09/09 00:32:11;;;;;;;;;2.00;1.00;;;;;18.93;59.61;100544.00;5061041;27;45468;-70
2022/09/09 00:34:47;;;;;;;;;1.00;1.00;;;;;18.89;59.84;100530.91;5047597;27;45496;-72
2022/09/09 00:37:15;;;;;;;;;1.00;1.00;;;;;18.93;59.81;100537.84;5070381;27;45731;-71
2022/09/09 00:39:44;;;;;;;;;1.00;1.00;;;;;18.82;59.93;100511.72;5049872;28;45514;-72
2022/09/09 00:42:41;;;;;;;;;2.67;1.00;;;;;18.95;59.63;100531.56;5079981;27;45411;-70
2022/09/09 00:45:28;;;;;;;;;0.00;0.00;;;;;19.04;59.77;100538.34;5063216;27;45629;-71
2022/09/09 00:47:54;;;;;;;;;3.67;1.67;;;;;18.91;60.10;100532.63;5080337;27;45328;-71
2022/09/09 00:50:51;;;;;;;;;1.00;1.00;;;;;18.87;60.19;100530.97;5075507;27;45453;-70
2022/09/09 00:53:24;;;;;;;;;1.00;1.00;;;;;18.84;60.71;100539.91;5077380;27;45391;-70
2022/09/09 00:55:55;;;;;;;;;3.33;2.00;;;;;18.89;60.17;100534.44;5077032;27;45421;-71
2022/09/09 00:58:20;;;;;;;;;1.00;1.00;;;;;18.64;60.79;100484.00;5075102;27;45358;-71
2022/09/09 01:00:52;;;;;;;;;2.00;1.00;;;;;18.77;60.05;100519.84;5075226;27;47158;-71
2022/09/09 01:03:39;;;;;;;;;1.00;1.00;;;;;18.79;60.74;100519.75;5075020;27;45849;-70
2022/09/09 01:06:29;;;;;;;;;1.00;1.00;;;;;18.82;60.41;100517.00;5065734;27;45546;-72
2022/09/09 01:09:25;;;;;;;;;1.00;1.00;;;;;18.82;60.47;100519.66;5075924;27;45417;-71
2022/09/09 01:12:17;;;;;;;;;1.00;1.00;;;;;18.76;60.69;100519.84;5063817;27;45605;-70
2022/09/09 01:14:52;;;;;;;;;1.00;1.00;;;;;18.67;60.89;100517.50;5046345;27;45513;-70
2022/09/09 01:17:34;;;;;;;;;3.33;1.00;;;;;18.67;61.02;100526.31;5078493;27;45457;-70
2022/09/09 01:20:18;;;;;;;;;1.33;1.00;;;;;18.66;60.77;100514.00;5045004;27;45457;-71
2022/09/09 01:22:58;;;;;;;;;1.00;1.00;;;;;18.70;60.67;100522.69;5074318;27;45568;-70
2022/09/09 01:26:04;;;;;;;;;1.00;1.00;;;;;18.61;60.87;100513.28;5077130;27;45558;-70
2022/09/09 01:28:32;;;;;;;;;3.33;2.33;;;;;18.61;60.80;100518.59;5078085;27;45349;-70
2022/09/09 01:30:58;;;;;;;;;4.00;1.67;;;;;18.63;61.09;100512.31;5075316;27;45362;-70
2022/09/09 01:33:24;;;;;;;;;3.00;1.33;;;;;18.61;61.02;100502.69;5077957;27;46427;-71
2022/09/09 01:36:01;;;;;;;;;1.00;1.00;;;;;18.77;60.61;100519.84;5079129;27;45386;-70
2022/09/09 01:38:31;;;;;;;;;3.00;2.00;;;;;18.75;60.82;100520.78;5056582;28;45511;-71
2022/09/09 01:40:58;;;;;;;;;1.33;1.00;;;;;18.75;60.90;100518.13;5076255;27;45600;-72
2022/09/09 01:43:25;;;;;;;;;1.67;1.00;;;;;18.78;60.57;100510.06;5060233;27;46142;-71
2022/09/09 01:45:58;;;;;;;;;2.00;1.00;;;;;18.87;60.81;100515.06;5077685;27;45428;-73
2022/09/09 01:48:25;;;;;;;;;1.00;1.00;;;;;18.80;60.92;100503.78;5078864;27;45479;-72
2022/09/09 01:50:51;;;;;;;;;0.67;0.67;;;;;18.91;60.44;100522.00;5074839;27;45729;-71
2022/09/09 01:53:19;;;;;;;;;1.00;1.00;;;;;18.97;60.41;100536.81;5075012;27;46140;-72
2022/09/09 01:56:02;;;;;;;;;2.00;1.33;;;;;18.85;60.31;100509.78;5060667;27;45459;-72
2022/09/09 01:58:34;;;;;;;;;1.33;1.33;;;;;18.88;60.28;100516.78;5075894;27;45445;-70
2022/09/09 02:01:15;;;;;;;;;3.00;1.00;;;;;18.86;60.52;100518.63;5056076;27;45710;-70
2022/09/09 02:03:47;;;;;;;;;0.67;0.67;;;;;18.70;60.43;100494.41;5073878;27;46715;-71
2022/09/09 02:06:30;;;;;;;;;1.00;1.00;;;;;18.80;60.70;100505.59;5074111;27;45528;-71
2022/09/09 02:08:59;;;;;;;;;1.00;1.00;;;;;18.79;60.88;100507.38;5073878;27;45440;-70
2022/09/09 02:11:27;;;;;;;;;1.67;1.67;;;;;18.84;60.59;100515.19;5056222;27;45393;-72
2022/09/09 02:14:15;;;;;;;;;1.00;1.00;;;;;18.86;60.49;100523.91;5074646;27;45616;-72
2022/09/09 02:16:51;;;;;;;;;1.00;1.00;;;;;18.82;60.60;100512.56;5075789;28;45802;-71
2022/09/09 02:19:26;;;;;;;;;2.00;1.00;;;;;18.62;61.01;100507.06;5074627;27;45325;-71
2022/09/09 02:21:55;;;;;;;;;2.00;1.00;;;;;18.59;60.93;100494.78;5074323;27;45531;-71
2022/09/09 02:24:23;;;;;;;;;1.00;1.00;;;;;18.67;61.13;100501.59;5060182;27;45545;-71
2022/09/09 02:26:53;;;;;;;;;2.00;1.00;;;;;18.67;61.12;100486.53;5077011;27;45358;-72
2022/09/09 02:29:33;;;;;;;;;2.00;2.00;;;;;18.56;61.31;100488.72;5072964;27;45365;-71
2022/09/09 02:32:03;;;;;;;;;1.00;1.00;;;;;18.61;61.16;100497.38;5059159;28;45528;-71
2022/09/09 02:34:33;;;;;;;;;4.00;1.33;;;;;18.57;61.42;100485.13;5074187;27;46230;-71
2022/09/09 02:37:00;;;;;;;;;4.00;1.00;;;;;18.56;61.60;100504.63;5074041;27;45828;-70
2022/09/09 02:39:26;;;;;;;;;1.67;1.00;;;;;18.58;61.55;100501.00;5074180;27;45451;-71
2022/09/09 02:41:52;;;;;;;;;3.00;1.67;;;;;18.50;60.98;100496.88;5074266;27;45440;-71
2022/09/09 02:44:19;;;;;;;;;2.00;2.00;;;;;18.39;61.72;100479.56;5055507;28;47766;-70
2022/09/09 02:47:12;;;;;;;;;3.00;0.67;;;;;18.56;61.43;100499.34;5074179;27;45896;-70
2022/09/09 02:49:58;;;;;;;;;3.00;1.00;;;;;18.57;61.27;100496.59;5073854;27;45638;-70
2022/09/09 02:52:36;;;;;;;;;1.33;0.67;;;;;18.44;61.65;100482.91;5044324;28;45536;-71
2022/09/09 02:55:14;;;;;;;;;1.00;1.00;;;;;18.58;61.39;100487.75;5072045;27;46879;-70
2022/09/09 02:57:42;;;;;;;;;1.33;1.33;;;;;18.58;61.36;100486.84;5075212;27;45473;-70
2022/09/09 03:00:09;;;;;;;;;1.33;1.33;;;;;18.58;61.46;100497.47;5073620;28;45440;-70
2022/09/09 03:02:35;;;;;;;;;2.00;2.00;;;;;18.53;61.35;100484.41;5056570;28;45523;-70
2022/09/09 03:05:00;;;;;;;;;1.00;1.00;;;;;18.41;61.40;100483.03;5073595;27;46164;-70
2022/09/09 03:07:27;;;;;;;;;3.00;2.00;;;;;18.32;61.87;100463.91;5077390;27;45297;-71
2022/09/09 03:09:53;;;;;;;;;2.33;1.00;;;;;18.51;61.77;100477.38;5076217;27;45346;-71
2022/09/09 03:12:20;;;;;;;;;1.00;1.00;;;;;18.49;61.66;100485.41;5059406;27;45365;-70
2022/09/09 03:14:46;;;;;;;;;1.00;1.00;;;;;18.57;61.54;100477.19;5075040;27;45495;-70
2022/09/09 03:17:12;;;;;;;;;1.00;1.00;;;;;18.53;61.96;100496.75;5077824;27;45502;-71
2022/09/09 03:19:38;;;;;;;;;3.00;3.00;;;;;18.48;62.00;100493.41;5077803;27;45490;-71
2022/09/09 03:22:04;;;;;;;;;3.00;2.00;;;;;18.48;61.97;100478.34;5074650;27;45466;-73
2022/09/09 03:24:29;;;;;;;;;3.67;1.00;;;;;18.32;62.08;100463.91;5054891;28;45331;-71
2022/09/09 03:26:55;;;;;;;;;2.67;1.00;;;;;18.51;62.35;100490.63;5054662;27;45430;-71
2022/09/09 03:29:21;;;;;;;;;3.00;2.00;;;;;18.50;61.93;100489.78;5073239;27;46098;-70
2022/09/09 03:31:47;;;;;;;;;1.00;1.00;;;;;18.40;61.59;100480.41;5073183;27;45337;-71
2022/09/09 03:34:13;;;;;;;;;2.00;2.00;;;;;18.41;61.90;100472.44;5074662;27;47903;-71
2022/09/09 03:36:41;;;;;;;;;3.33;2.00;;;;;18.49;61.75;100488.06;5077769;27;45540;-71
2022/09/09 03:39:07;;;;;;;;;1.00;1.00;;;;;18.38;62.09;100485.78;5077784;27;45322;-71
2022/09/09 03:41:34;;;;;;;;;3.00;1.00;;;;;18.36;62.51;100481.44;5076008;27;45384;-71
2022/09/09 03:43:59;;;;;;;;;4.00;1.00;;;;;18.33;62.25;100486.84;5058713;27;46820;-70
2022/09/09 03:46:25;;;;;;;;;3.00;1.67;;;;;18.39;62.33;100489.31;5076641;27;45524;-71
2022/09/09 03:48:54;;;;;;;;;1.00;1.00;;;;;18.40;62.29;100486.59;5058779;28;45705;-72
2022/09/09 03:51:21;;;;;;;;;3.33;2.00;;;;;18.41;62.20;100490.09;5076832;27;45759;-70
2022/09/09 03:53:47;;;;;;;;;4.67;2.00;;;;;18.11;62.72;100460.22;5057716;27;46818;-70
2022/09/09 03:56:13;;;;;;;;;3.33;2.67;;;;;18.20;62.73;100489.94;5076751;27;45321;-71
2022/09/09 03:58:39;;;;;;;;;3.67;2.00;;;;;18.08;62.93;100482.38;5075177;27;45402;-71
2022/09/09 04:01:10;;;;;;;;;2.00;1.33;;;;;18.23;62.74;100497.75;5077561;27;45541;-71
2022/09/09 04:03:35;;;;;;;;;2.00;0.33;;;;;18.27;62.55;100497.66;5076693;27;46475;-71
2022/09/09 04:06:04;;;;;;;;;2.67;1.00;;;;;18.32;62.71;100499.25;5074607;27;45388;-71
2022/09/09 04:08:31;;;;;;;;;1.67;1.00;;;;;18.30;62.98;100500.22;5076258;27;45370;-71
2022/09/09 04:10:57;;;;;;;;;2.00;2.00;;;;;18.14;63.12;100495.41;5071647;27;45531;-71
2022/09/09 04:13:24;;;;;;;;;2.00;2.00;;;;;18.01;63.12;100464.97;5046698;27;47009;-71
2022/09/09 04:15:55;;;;;;;;;1.67;1.67;;;;;18.03;63.67;100489.59;5075952;27;45563;-71
2022/09/09 04:18:22;;;;;;;;;2.33;2.33;;;;;17.95;63.88;100487.19;5076484;27;45315;-73
2022/09/09 04:20:49;;;;;;;;;4.00;3.00;;;;;17.91;63.91;100476.75;5094039;27;45517;-72
2022/09/09 04:23:16;;;;;;;;;3.00;2.67;;;;;17.80;64.24;100463.84;5076000;27;45557;-72
2022/09/09 04:25:49;;;;;;;;;2.67;2.33;;;;;17.94;64.19;100492.56;5076269;27;45789;-74
2022/09/09 04:28:17;;;;;;;;;3.00;3.00;;;;;17.77;64.45;100478.03;5075979;27;45524;-72
2022/09/09 04:30:43;;;;;;;;;1.00;1.00;;;;;17.85;64.87;100487.56;5076494;27;45457;-73
2022/09/09 04:33:10;;;;;;;;;2.67;2.00;;;;;17.79;64.86;100489.44;5055804;28;46665;-72
2022/09/09 04:35:36;;;;;;;;;4.67;3.00;;;;;17.80;64.65;100493.88;5061653;27;45458;-72
2022/09/09 04:38:02;;;;;;;;;2.33;2.33;;;;;17.75;64.56;100501.06;5067279;27;45517;-73
2022/09/09 04:40:29;;;;;;;;;2.00;2.00;;;;;17.62;65.50;100481.16;5078636;27;45569;-73
2022/09/09 04:42:57;;;;;;;;;1.00;1.00;;;;;17.72;65.10;100484.38;5075704;27;46086;-71
2022/09/09 04:45:23;;;;;;;;;3.00;2.00;;;;;17.84;64.81;100501.72;5062609;27;45463;-72
2022/09/09 04:47:49;;;;;;;;;1.00;1.00;;;;;17.91;65.03;100500.59;5075896;27;45267;-72
2022/09/09 04:50:15;;;;;;;;;2.67;2.33;;;;;17.91;64.85;100497.94;5078660;27;45469;-72
2022/09/09 04:52:41;;;;;;;;;2.33;2.00;;;;;17.83;64.79;100478.78;5075028;27;46374;-73
2022/09/09 04:55:07;;;;;;;;;3.00;1.00;;;;;17.78;64.90;100500.97;5075395;27;45441;-72
2022/09/09 04:57:34;;;;;;;;;2.00;2.00;;;;;17.76;65.15;100499.28;5064746;28;45580;-72
2022/09/09 05:00:00;;;;;;;;;3.00;2.00;;;;;17.73;65.22;100505.53;5055948;27;45467;-71
2022/09/09 05:02:26;;;;;;;;;1.33;1.33;;;;;17.60;65.26;100494.44;5036947;28;46612;-72
2022/09/09 05:04:52;;;;;;;;;3.00;3.00;;;;;17.61;65.48;100497.97;5041414;28;45504;-72
2022/09/09 05:07:17;;;;;;;;;3.00;2.00;;;;;17.56;65.30;100489.31;5054864;27;45798;-72
2022/09/09 05:09:42;;;;;;;;;3.00;3.00;;;;;16.99;65.75;100411.63;5057746;27;45476;-71
2022/09/09 05:12:08;;;;;;;;;3.00;2.00;;;;;17.57;65.68;100498.97;5068101;27;45943;-71
2022/09/09 05:14:37;;;;;;;;;3.00;2.00;;;;;17.37;66.05;100481.06;5056045;27;45371;-73
2022/09/09 05:17:04;;;;;;;;;3.00;2.67;;;;;17.28;66.12;100481.34;5037285;28;45706;-75
2022/09/09 05:19:30;;;;;;;;;3.67;2.00;;;;;17.44;66.31;100519.69;5054910;27;45509;-72
2022/09/09 05:21:56;;;;;;;;;7.00;3.00;;;;;17.30;66.61;100506.84;5036708;28;46130;-75
2022/09/09 05:24:25;;;;;;;;;5.33;2.33;;;;;17.28;66.34;100489.28;5036007;27;45592;-73
2022/09/09 05:26:51;;;;;;;;;2.67;2.00;;;;;17.47;66.39;100521.38;5037370;28;45539;-73
2022/09/09 05:29:19;;;;;;;;;1.00;1.00;;;;;17.59;66.01;100532.44;5048363;27;45559;-74
2022/09/09 05:31:55;;;;;;;;;3.67;2.00;;;;;17.53;65.59;100505.28;5061902;27;45576;-75
2022/09/09 05:34:22;;;;;;;;;2.33;1.00;;;;;17.66;65.70;100514.59;5068992;27;45498;-74
2022/09/09 05:36:52;;;;;;;;;1.00;1.00;;;;;17.80;65.57;100527.41;5068592;27;45772;-73
2022/09/09 05:39:18;;;;;;;;;2.00;2.00;;;;;17.33;65.83;100467.03;5056969;27;45422;-74
2022/09/09 05:41:49;;;;;;;;;3.33;2.33;;;;;17.44;65.59;100487.03;5068791;27;45537;-74
2022/09/09 05:44:27;;;;;;;;;2.33;2.00;;;;;17.12;66.21;100443.88;5037875;27;45320;-73
2022/09/09 05:46:57;;;;;;;;;2.00;2.00;;;;;17.30;65.92;100466.28;5058239;27;45442;-73
2022/09/09 05:49:23;;;;;;;;;2.00;2.00;;;;;17.72;66.06;100532.94;5034790;28;45442;-75
2022/09/09 05:51:50;;;;;;;;;3.00;3.00;;;;;17.45;66.43;100492.28;5043074;27;47832;-74
2022/09/09 05:54:16;;;;;;;;;4.33;2.67;;;;;17.36;66.58;100485.47;5035029;28;45512;-74
2022/09/09 05:56:42;;;;;;;;;3.67;2.67;;;;;17.52;65.81;100493.81;5035606;28;45404;-73
2022/09/09 05:59:08;;;;;;;;;3.33;2.33;;;;;17.61;66.24;100500.63;5060332;27;45386;-75
2022/09/09 06:01:40;;;;;;;;;6.33;3.00;;;;;17.79;65.84;100507.97;5060472;27;45547;-75
2022/09/09 06:04:07;;;;;;;;;6.67;2.67;;;;;17.51;65.52;100454.13;5038387;28;45501;-75
2022/09/09 06:06:39;;;;;;;;;4.67;2.33;;;;;17.57;65.69;100464.56;5035736;28;45524;-73
2022/09/09 06:09:09;;;;;;;;;2.67;2.67;;;;;17.44;65.43;100420.81;5057232;27;45394;-74
2022/09/09 06:11:36;;;;;;;;;2.33;2.00;;;;;17.79;65.89;100486.78;5054137;27;45372;-73
2022/09/09 06:14:03;;;;;;;;;3.33;2.33;;;;;17.82;65.95;100501.78;5069119;27;45530;-73
2022/09/09 06:16:32;;;;;;;;;2.00;2.00;;;;;17.77;65.82;100495.69;5074535;27;45558;-76
2022/09/09 06:18:58;;;;;;;;;5.00;3.33;;;;;17.76;65.73;100491.34;5057221;28;45379;-75
2022/09/09 06:21:26;;;;;;;;;3.00;3.00;;;;;18.01;65.48;100513.50;5065641;27;46317;-73
2022/09/09 06:24:09;;;;;;;;;2.00;2.00;;;;;18.17;64.98;100523.59;5063487;27;45574;-72
2022/09/09 06:26:40;;;;;;;;;3.00;3.00;;;;;18.11;64.99;100529.97;5059627;28;45542;-72
2022/09/09 06:29:07;;;;;;;;;2.67;2.67;;;;;18.14;64.92;100524.56;5073885;27;45320;-74
2022/09/09 06:31:36;;;;;;;;;3.33;1.00;;;;;18.28;64.61;100534.72;5072424;27;46420;-72
2022/09/09 06:34:05;;;;;;;;;4.67;3.00;;;;;18.35;64.44;100530.94;5071619;27;45508;-73
2022/09/09 06:36:33;;;;;;;;;2.00;2.00;;;;;18.38;64.23;100519.38;5071287;27;45355;-73
2022/09/09 06:38:59;;;;;;;;;3.67;3.00;;;;;18.38;64.13;100506.13;5074874;27;45632;-73
2022/09/09 06:41:27;;;;;;;;;4.00;3.00;;;;;18.45;64.54;100510.28;5073028;27;45480;-71
2022/09/09 06:43:53;;;;;;;;;2.00;2.00;;;;;18.44;63.84;100524.50;5071211;27;45518;-73
2022/09/09 06:46:27;;;;;;;;;3.67;3.67;;;;;18.43;63.92;100525.38;5049761;27;45440;-75
2022/09/09 06:48:59;;;;;;;;;2.00;2.00;;;;;18.49;63.67;100535.81;5053665;27;45345;-74
2022/09/09 06:51:30;;;;;;;;;3.00;1.33;;;;;18.56;63.43;100526.72;5043938;28;46138;-73
2022/09/09 06:53:59;;;;;;;;;3.00;3.00;;;;;18.60;63.16;100520.41;5069569;27;45535;-74
2022/09/09 06:56:33;;;;;;;;;7.00;4.00;;;;;18.61;63.02;100527.41;5068913;27;45543;-72
2022/09/09 06:59:03;;;;;;;;;3.00;3.00;;;;;18.65;62.84;100534.34;5051826;27;45691;-74
2022/09/09 07:01:43;;;;;;;;;3.00;3.00;;;;;18.51;62.71;100494.19;5071316;27;46371;-72
2022/09/09 07:04:19;;;;;;;;;2.33;2.33;;;;;18.52;62.64;100479.13;5039526;28;45647;-74
2022/09/09 07:06:46;;;;;;;;;3.00;2.67;;;;;18.83;61.98;100508.13;5070776;27;45471;-74
2022/09/09 07:09:18;;;;;;;;;6.00;3.67;;;;;18.82;61.78;100490.47;5065146;27;45573;-73
2022/09/09 07:11:52;;;;;;;;;3.00;3.00;;;;;18.75;61.46;100478.31;5070494;27;47146;-74
2022/09/09 07:14:21;;;;;;;;;3.33;2.00;;;;;18.80;61.58;100492.31;5055632;27;45547;-74
2022/09/09 07:16:47;;;;;;;;;5.00;2.67;;;;;18.56;61.45;100440.97;5038756;28;45432;-74
2022/09/09 07:19:14;;;;;;;;;3.67;3.00;;;;;19.09;61.49;100528.41;5056864;27;45734;-74
2022/09/09 07:21:40;;;;;;;;;3.67;2.00;;;;;19.05;61.27;100530.31;5056589;27;45402;-72
2022/09/09 07:24:10;;;;;;;;;2.67;2.00;;;;;19.07;61.54;100540.88;5057262;27;45502;-73
2022/09/09 07:26:37;;;;;;;;;6.67;2.00;;;;;19.16;61.14;100545.00;5038969;28;45465;-72
2022/09/09 07:29:07;;;;;;;;;6.00;4.00;;;;;18.75;61.00;100467.72;5039136;27;45497;-75
2022/09/09 07:31:39;;;;;;;;;5.00;3.00;;;;;19.26;60.47;100549.03;5031183;27;46906;-74
2022/09/09 07:34:05;;;;;;;;;2.00;2.00;;;;;19.28;60.61;100549.84;5067269;27;45343;-73
2022/09/09 07:36:46;;;;;;;;;5.00;3.33;;;;;19.24;60.24;100543.78;5058685;27;45842;-75
2022/09/09 07:39:13;;;;;;;;;3.00;2.00;;;;;19.45;59.97;100555.38;5052054;27;46510;-73
2022/09/09 07:41:42;;;;;;;;;2.00;2.00;;;;;19.51;59.52;100548.13;5050889;27;47851;-73
2022/09/09 07:44:13;;;;;;;;;4.33;3.67;;;;;19.74;59.17;100556.09;5051911;27;45715;-74
2022/09/09 07:46:40;;;;;;;;;2.00;2.00;;;;;19.74;58.84;100550.78;5078936;27;45812;-74
2022/09/09 07:49:07;;;;;;;;;2.67;1.00;;;;;19.62;58.48;100536.16;5070260;27;45362;-73
2022/09/09 07:51:35;;;;;;;;;2.00;2.00;;;;;19.73;58.67;100559.69;5066050;27;46610;-74
2022/09/09 07:54:04;;;;;;;;;4.00;2.00;;;;;19.67;58.72;100558.09;5071844;27;45929;-74
2022/09/09 07:56:31;;;;;;;;;3.67;2.00;;;;;19.54;58.83;100543.53;5064005;27;46016;-72
2022/09/09 07:59:01;;;;;;;;;2.00;2.00;;;;;19.50;58.53;100552.56;5069124;27;45655;-73
2022/09/09 08:01:38;;;;;;;;;2.00;2.00;;;;;19.59;58.60;100554.84;5058477;27;46569;-73
2022/09/09 08:04:07;;;;;;;;;2.00;1.33;;;;;19.75;58.09;100563.16;5070184;27;45525;-70
2022/09/09 08:06:46;;;;;;;;;3.33;2.00;;;;;19.77;58.04;100560.44;5056257;27;47002;-72
2022/09/09 08:09:12;;;;;;;;;1.33;1.33;;;;;19.75;57.81;100560.50;5068657;27;45688;-73
2022/09/09 08:11:38;;;;;;;;;3.00;3.00;;;;;19.83;57.68;100573.47;5086770;27;46444;-72
2022/09/09 08:14:07;;;;;;;;;1.00;1.00;;;;;19.82;57.99;100583.25;5073307;27;45394;-72
2022/09/09 08:16:36;;;;;;;;;3.00;2.00;;;;;19.78;57.69;100581.63;5073199;27;45819;-75
2022/09/09 08:19:03;;;;;;;;;5.00;1.33;;;;;19.74;57.92;100576.47;5066808;27;46481;-74
2022/09/09 08:21:31;;;;;;;;;2.67;2.67;;;;;19.69;58.25;100584.63;5070294;27;46245;-74
2022/09/09 08:23:58;;;;;;;;;6.67;2.33;;;;;19.66;58.19;100585.59;5061366;27;45354;-74
2022/09/09 08:26:28;;;;;;;;;2.67;2.33;;;;;19.62;58.11;100583.09;5067923;27;45553;-74
2022/09/09 08:28:56;;;;;;;;;3.33;2.00;;;;;19.64;58.31;100586.56;5056763;27;45342;-73
2022/09/09 08:31:33;;;;;;;;;3.33;3.00;;;;;19.80;57.80;100592.19;5055193;27;45493;-74
2022/09/09 08:33:59;;;;;;;;;10.00;3.00;;;;;19.87;57.69;100596.34;5073607;27;45477;-74
2022/09/09 08:36:27;;;;;;;;;2.67;2.00;;;;;19.89;57.65;100581.22;5072120;27;45896;-77
2022/09/09 08:38:55;;;;;;;;;4.00;2.00;;;;;20.22;56.53;100591.44;5071940;27;45658;-74
2022/09/09 08:41:43;;;;;;;;;1.67;1.00;;;;;20.45;56.17;100596.66;5070605;27;45815;-75
2022/09/09 08:44:36;;;;;;;;;4.67;3.00;;;;;20.52;55.98;100591.97;5069069;27;45469;-75
2022/09/09 08:47:26;;;;;;;;;1.67;1.67;;;;;20.66;55.60;100580.78;5073620;27;45449;-75
2022/09/09 08:50:07;;;;;;;;;2.33;2.33;;;;;20.66;55.75;100589.63;5068889;27;45703;-72
2022/09/09 08:53:01;;;;;;;;;3.67;2.00;;;;;20.59;55.28;100572.19;5068390;27;45508;-75
2022/09/09 08:56:08;;;;;;;;;2.00;2.00;;;;;20.67;55.39;100595.84;5067814;27;45527;-76
2022/09/09 08:58:40;;;;;;;;;3.00;3.00;;;;;20.45;55.72;100587.81;5014046;28;45489;-74
2022/09/09 09:01:08;;;;;;;;;4.00;2.67;;;;;20.30;56.00;100603.47;5057387;27;45551;-73
2022/09/09 09:03:53;;;;;;;;;5.00;2.00;;;;;20.37;56.09;100606.78;5066615;27;45448;-72
2022/09/09 09:06:30;;;;;;;;;1.33;1.33;;;;;20.41;56.06;100602.22;5049576;27;45809;-73
2022/09/09 09:09:18;;;;;;;;;1.67;1.67;;;;;20.55;55.63;100607.81;5063089;27;45631;-76
2022/09/09 09:11:49;;;;;;;;;2.00;2.00;;;;;20.78;55.57;100616.66;5071260;27;45307;-77
2022/09/09 09:14:24;;;;;;;;;2.00;2.00;;;;;20.84;55.29;100613.75;5059765;27;47797;-71
2022/09/09 09:17:06;;;;;;;;;3.33;2.00;;;;;20.97;54.87;100617.59;5064369;27;45573;-71
2022/09/09 09:19:38;;;;;;;;;2.00;2.00;;;;;20.92;54.55;100600.97;5071479;27;46115;-71
2022/09/09 09:22:17;;;;;;;;;2.00;2.00;;;;;20.84;54.48;100609.28;5056217;27;45558;-73
2022/09/09 09:24:52;;;;;;;;;2.00;2.00;;;;;20.78;55.18;100640.63;5063682;27;47308;-71
2022/09/09 09:28:04;;;;;;;;;3.33;2.00;;;;;20.71;55.24;100637.34;5066802;27;45432;-73
2022/09/09 09:30:38;;;;;;;;;1.33;1.33;;;;;20.74;55.28;100638.09;5024580;27;45795;-73
2022/09/09 09:33:31;;;;;;;;;3.33;2.00;;;;;20.72;55.29;100637.28;5021214;27;46564;-73
2022/09/09 09:35:59;;;;;;;;;4.00;2.67;;;;;20.65;55.69;100640.28;5070245;27;46600;-71
2022/09/09 09:38:28;;;;;;;;;1.67;1.67;;;;;20.63;55.85;100627.00;5069577;27;45673;-73
2022/09/09 09:40:58;;;;;;;;;3.33;2.33;;;;;20.64;55.88;100647.34;5068291;27;45674;-71
2022/09/09 09:43:29;;;;;;;;;4.33;2.00;;;;;20.32;56.12;100630.88;5063557;27;45360;-72
2022/09/09 09:45:57;;;;;;;;;3.33;2.33;;;;;20.40;55.92;100645.69;5056816;27;46053;-75
2022/09/09 09:48:23;;;;;;;;;2.00;2.00;;;;;20.39;56.88;100651.94;5057682;27;45493;-74
2022/09/09 09:50:57;;;;;;;;;3.33;2.00;;;;;20.47;56.66;100658.66;5055498;27;45664;-69
2022/09/09 09:53:34;;;;;;;;;2.00;2.00;;;;;20.53;56.21;100654.91;5054634;27;45378;-69
2022/09/09 09:56:07;;;;;;;;;1.67;1.00;;;;;20.58;56.32;100652.94;5062238;27;45704;-68
2022/09/09 09:58:45;;;;;;;;;1.67;1.67;;;;;20.65;55.73;100640.28;5064103;27;45557;-71
2022/09/09 10:01:33;;;;;;;;;3.00;2.00;;;;;20.88;55.54;100636.63;5071598;27;45446;-73
2022/09/09 10:04:13;;;;;;;;;3.00;3.00;;;;;21.31;55.26;100648.09;5067709;27;45655;-72
2022/09/09 10:06:39;;;;;;;;;2.67;2.00;;;;;21.69;52.89;100637.53;5069581;27;47105;-71
2022/09/09 10:09:24;;;;;;;;;4.33;2.00;;;;;21.80;53.08;100644.09;5035731;27;45355;-73
2022/09/09 10:12:01;;;;;;;;;1.33;1.33;;;;;21.83;52.79;100655.56;5035612;28;45831;-70
2022/09/09 10:14:56;;;;;;;;;2.67;1.00;;;;;21.76;53.39;100650.53;5069400;27;45513;-72
2022/09/09 10:17:28;;;;;;;;;1.33;1.33;;;;;21.75;53.63;100663.91;5062279;27;45371;-71
2022/09/09 10:20:27;;;;;;;;;1.00;1.00;;;;;21.65;53.10;100646.63;5053987;27;45363;-73
2022/09/09 10:23:10;;;;;;;;;1.33;1.00;;;;;21.71;53.38;100659.66;5048357;28;45527;-71
2022/09/09 10:26:07;;;;;;;;;1.67;1.67;;;;;21.78;51.71;100655.78;5047316;28;45345;-72
2022/09/09 10:28:56;;;;;;;;;3.67;1.33;;;;;21.94;52.73;100661.28;5045292;28;47996;-70
2022/09/09 10:31:45;;;;;;;;;2.00;1.00;;;;;22.17;52.11;100655.72;5038262;28;45818;-74
2022/09/09 10:34:45;;;;;;;;;3.67;2.00;;;;;22.62;50.53;100656.28;5056848;28;45282;-71
2022/09/09 10:37:30;;;;;;;;;1.33;1.33;;;;;22.84;50.16;100661.41;5064858;27;45469;-74
2022/09/09 10:40:15;;;;;;;;;2.00;2.00;;;;;22.85;49.94;100676.47;5059335;27;45453;-73
2022/09/09 10:42:42;;;;;;;;;2.00;2.00;;;;;22.39;50.37;100642.25;5036945;27;45476;-73
2022/09/09 10:45:18;;;;;;;;;2.67;2.67;;;;;22.29;50.97;100666.78;5064461;27;45524;-73
2022/09/09 10:48:14;;;;;;;;;2.33;1.67;;;;;22.10;51.21;100653.44;5069644;27;45619;-74
2022/09/09 10:50:57;;;;;;;;;3.00;1.00;;;;;22.61;51.03;100660.75;5048498;28;47930;-73
2022/09/09 10:53:43;;;;;;;;;3.00;2.00;;;;;22.98;49.89;100658.94;5061298;27;45972;-72
2022/09/09 10:56:15;;;;;;;;;2.00;2.00;;;;;23.28;49.87;100653.81;5060605;27;45728;-72
2022/09/09 10:59:08;;;;;;;;;3.00;1.00;;;;;23.52;48.78;100661.50;5067662;27;45453;-71
2022/09/09 11:01:44;;;;;;;;;2.00;2.00;;;;;23.62;47.97;100621.75;5056485;27;47314;-73
2022/09/09 11:04:22;;;;;;;;;2.00;2.00;;;;;23.57;48.12;100653.22;5053421;27;45460;-72
2022/09/09 11:06:54;;;;;;;;;1.33;1.33;;;;;23.10;49.06;100649.44;5071109;27;46001;-75
2022/09/09 11:09:27;;;;;;;;;3.67;1.33;;;;;22.72;50.44;100662.03;5069677;27;45427;-75
2022/09/09 11:11:55;;;;;;;;;2.67;1.67;;;;;22.39;51.53;100636.91;5066499;27;46628;-76
2022/09/09 11:14:38;;;;;;;;;2.00;2.00;;;;;22.34;51.97;100628.25;5057659;28;46044;-75
2022/09/09 11:17:18;;;;;;;;;3.00;2.00;;;;;22.48;51.55;100640.09;5073096;27;45326;-73
2022/09/09 11:19:47;;;;;;;;;2.00;2.00;;;;;22.73;50.83;100626.38;5069808;27;45785;-73
2022/09/09 11:22:21;;;;;;;;;1.00;1.00;;;;;23.21;50.42;100644.41;5062762;27;46577;-73
2022/09/09 11:24:59;;;;;;;;;3.00;3.00;;;;;23.20;50.09;100639.97;5064998;27;45496;-72
2022/09/09 11:27:31;;;;;;;;;2.00;2.00;;;;;23.46;49.75;100635.06;5065779;27;45521;-73
2022/09/09 11:30:17;;;;;;;;;3.00;3.00;;;;;23.85;48.07;100653.50;5053225;28;45751;-70
2022/09/09 11:33:04;;;;;;;;;3.00;1.33;;;;;23.97;47.86;100640.41;5053137;27;45924;-71
2022/09/09 11:35:46;;;;;;;;;1.00;1.00;;;;;23.81;47.91;100643.06;5058110;28;45490;-73
2022/09/09 11:38:45;;;;;;;;;4.00;3.67;;;;;23.47;47.38;100600.25;5056522;27;45303;-74
2022/09/09 11:41:11;;;;;;;;;2.00;2.00;;;;;24.11;47.13;100652.06;5052705;27;45810;-73
2022/09/09 11:43:44;;;;;;;;;2.00;2.00;;;;;24.10;46.35;100646.78;5034414;28;46845;-74
2022/09/09 11:46:12;;;;;;;;;3.33;2.00;;;;;23.74;46.99;100647.00;5037921;28;45544;-73
2022/09/09 11:48:45;;;;;;;;;12.33;7.33;;;;;23.31;48.84;100649.25;5056725;27;45328;-74
2022/09/09 11:51:25;;;;;;;;;4.33;4.00;;;;;23.02;49.31;100628.47;5053883;27;45532;-71